createdAt,value
2019-03-05T00:00:59.284Z,8.80
2019-03-05T00:04:04.386Z,8.60
2019-03-05T00:07:09.435Z,8.40
2019-03-05T00:10:16.970Z,8.40
2019-03-05T00:13:22.350Z,8.40
2019-03-05T00:16:27.554Z,8.50
2019-03-05T00:19:32.738Z,8.50
2019-03-05T00:22:37.736Z,8.50
2019-03-05T00:25:42.780Z,8.50
2019-03-05T00:29:09.195Z,8.50
2019-03-05T00:32:14.243Z,8.60
2019-03-05T00:35:39.766Z,8.60
2019-03-05T00:39:12.749Z,8.60
2019-03-05T00:42:59.646Z,8.60
2019-03-05T00:46:23.209Z,8.50
2019-03-05T00:50:09.263Z,8.50
2019-03-05T00:53:56.491Z,8.20
2019-03-05T00:57:22.316Z,8.00
2019-03-05T01:00:58.843Z,8.10
2019-03-05T01:04:36.282Z,8.20
2019-03-05T01:07:41.469Z,8.20
2019-03-05T01:10:46.507Z,8.10
2019-03-05T01:13:53.814Z,8.10
2019-03-05T01:16:58.885Z,8.10
2019-03-05T01:20:04.243Z,8.10
2019-03-05T01:23:09.220Z,8.10
2019-03-05T01:26:14.580Z,8.10
2019-03-05T01:29:19.600Z,8.10
2019-03-05T01:32:41.633Z,8.20
2019-03-05T01:35:53.471Z,8.10
2019-03-05T01:39:20.458Z,8.10
2019-03-05T01:42:25.361Z,8.10
2019-03-05T01:45:30.475Z,7.90
2019-03-05T01:48:35.385Z,7.90
2019-03-05T01:51:40.429Z,7.90
2019-03-05T01:54:45.143Z,7.90
2019-03-05T01:57:49.849Z,8.00
2019-03-05T02:00:57.246Z,7.90
2019-03-05T02:04:03.377Z,7.90
2019-03-05T02:07:17.163Z,7.90
2019-03-05T02:10:23.330Z,7.90
2019-03-05T02:13:28.571Z,7.90
2019-03-05T02:16:33.823Z,7.80
2019-03-05T02:19:46.893Z,7.80
2019-03-05T02:23:04.175Z,7.70
2019-03-05T02:27:13.577Z,7.60
2019-03-05T02:30:30.945Z,7.60
2019-03-05T02:34:31.877Z,7.50
2019-03-05T02:38:13.819Z,7.40
2019-03-05T02:41:46.250Z,7.30
2019-03-05T02:45:34.831Z,7.20
2019-03-05T02:49:07.374Z,7.30
2019-03-05T02:52:42.849Z,7.20
2019-03-05T02:56:20.636Z,7.20
2019-03-05T02:59:44.562Z,7.10
2019-03-05T03:02:58.204Z,7.20
2019-03-05T03:06:10.679Z,7.20
2019-03-05T03:09:57.779Z,7.20
2019-03-05T03:13:02.609Z,7.10
2019-03-05T03:16:07.560Z,7.10
2019-03-05T03:19:12.449Z,7.10
2019-03-05T03:22:17.472Z,7.10
2019-03-05T03:25:23.170Z,7.10
2019-03-05T03:28:28.282Z,6.90
2019-03-05T03:31:33.311Z,6.90
2019-03-05T03:34:38.473Z,6.80
2019-03-05T03:37:45.039Z,6.80
2019-03-05T03:40:50.081Z,6.80
2019-03-05T03:43:55.313Z,6.70
2019-03-05T03:47:00.175Z,6.70
2019-03-05T03:50:05.531Z,6.60
2019-03-05T03:53:11.000Z,6.60
2019-03-05T03:56:16.097Z,6.50
2019-03-05T03:59:21.215Z,6.50
2019-03-05T04:02:26.388Z,6.40
2019-03-05T04:05:31.486Z,6.30
2019-03-05T04:08:37.066Z,6.20
2019-03-05T04:11:42.017Z,6.20
2019-03-05T04:14:52.394Z,6.30
2019-03-05T04:17:57.789Z,6.40
2019-03-05T04:21:03.142Z,6.40
2019-03-05T04:24:08.078Z,6.50
2019-03-05T04:27:13.244Z,6.50
2019-03-05T04:30:18.122Z,6.50
2019-03-05T04:33:23.153Z,6.60
2019-03-05T04:36:28.227Z,6.50
2019-03-05T04:39:33.194Z,6.50
2019-03-05T04:42:38.312Z,6.40
2019-03-05T04:46:20.216Z,6.40
2019-03-05T04:49:50.187Z,6.40
2019-03-05T04:52:55.245Z,6.40
2019-03-05T04:56:00.520Z,6.40
2019-03-05T04:59:08.358Z,6.30
2019-03-05T05:02:13.184Z,6.20
2019-03-05T05:05:18.161Z,6.20
2019-03-05T05:08:23.063Z,6.20
2019-03-05T05:11:28.108Z,6.10
2019-03-05T05:14:33.206Z,6.20
2019-03-05T05:17:38.280Z,6.20
2019-03-05T05:20:43.520Z,6.30
2019-03-05T05:23:48.476Z,6.30
2019-03-05T05:26:53.570Z,6.30
2019-03-05T05:29:58.474Z,6.30
2019-03-05T05:33:03.665Z,6.30
2019-03-05T05:36:16.600Z,6.30
2019-03-05T05:39:56.928Z,6.30
2019-03-05T05:43:01.857Z,6.20
2019-03-05T05:46:06.849Z,6.20
2019-03-05T05:49:11.988Z,6.20
2019-03-05T05:52:17.065Z,6.20
2019-03-05T05:55:22.026Z,6.10
2019-03-05T05:58:27.240Z,6.10
2019-03-05T06:01:32.378Z,6.20
2019-03-05T06:04:37.305Z,6.30
2019-03-05T06:07:42.629Z,6.30
2019-03-05T06:10:47.942Z,6.30
2019-03-05T06:13:53.062Z,6.20
2019-03-05T06:16:58.263Z,6.10
2019-03-05T06:20:03.436Z,6.10
2019-03-05T06:23:08.624Z,6.20
2019-03-05T06:26:13.584Z,6.30
2019-03-05T06:29:18.544Z,6.30
2019-03-05T06:32:23.665Z,6.30
2019-03-05T06:35:28.697Z,6.40
2019-03-05T06:38:33.958Z,6.40
2019-03-05T06:41:44.622Z,6.50
2019-03-05T06:44:49.658Z,6.60
2019-03-05T06:47:57.996Z,6.70
2019-03-05T06:51:02.951Z,6.80
2019-03-05T06:54:07.975Z,6.70
2019-03-05T06:57:13.009Z,6.80
2019-03-05T07:00:29.376Z,6.80
2019-03-05T07:03:34.428Z,6.80
2019-03-05T07:06:55.644Z,6.90
2019-03-05T07:10:30.703Z,7.00
2019-03-05T07:13:35.625Z,7.10
2019-03-05T07:17:07.730Z,7.20
2019-03-05T07:20:57.902Z,7.40
2019-03-05T07:24:44.536Z,7.60
2019-03-05T07:27:53.155Z,7.90
2019-03-05T07:30:58.204Z,8.10
2019-03-05T07:34:04.617Z,8.30
2019-03-05T07:37:11.328Z,8.50
2019-03-05T07:40:16.569Z,8.70
2019-03-05T07:43:21.417Z,8.90
2019-03-05T07:46:26.366Z,9.10
2019-03-05T07:49:42.960Z,9.40
2019-03-05T07:52:38.082Z,9.40
2019-03-05T07:55:43.073Z,9.50
2019-03-05T07:58:48.157Z,9.40
2019-03-05T08:01:53.118Z,9.60
2019-03-05T08:04:58.125Z,9.80
2019-03-05T08:08:38.645Z,9.60
2019-03-05T08:11:43.733Z,9.50
2019-03-05T08:15:15.915Z,9.70
2019-03-05T08:18:21.049Z,10.00
2019-03-05T08:21:26.426Z,10.30
2019-03-05T08:24:31.553Z,10.50
2019-03-05T08:27:36.568Z,10.70
2019-03-05T08:30:42.273Z,10.60
2019-03-05T08:33:47.440Z,10.40
2019-03-05T08:36:52.488Z,10.40
2019-03-05T08:39:57.447Z,10.60
2019-03-05T08:43:02.401Z,10.60
2019-03-05T08:46:07.228Z,10.80
2019-03-05T08:49:12.223Z,10.80
2019-03-05T08:52:17.371Z,11.30
2019-03-05T08:55:22.565Z,11.70
2019-03-05T08:58:27.947Z,12.10
2019-03-05T09:01:32.786Z,12.10
2019-03-05T09:04:37.947Z,12.30
2019-03-05T09:07:42.912Z,12.50
2019-03-05T09:10:47.783Z,12.90
2019-03-05T09:13:52.765Z,13.50
2019-03-05T09:16:57.946Z,14.50
2019-03-05T09:20:02.852Z,15.90
2019-03-05T09:23:26.608Z,17.00
2019-03-05T09:26:31.505Z,18.70
2019-03-05T09:29:37.974Z,20.10
2019-03-05T09:32:42.926Z,21.40
2019-03-05T09:35:47.950Z,21.40
2019-03-05T09:38:53.201Z,21.80
2019-03-05T09:41:58.493Z,22.40
2019-03-05T09:45:03.682Z,23.20
2019-03-05T09:48:14.391Z,24.60
2019-03-05T09:51:23.567Z,26.50
2019-03-05T09:54:28.673Z,27.30
2019-03-05T09:57:33.680Z,28.40
2019-03-05T10:00:39.027Z,28.40
2019-03-05T10:03:44.086Z,28.60
2019-03-05T10:06:49.029Z,28.80
2019-03-05T10:09:54.093Z,30.30
2019-03-05T10:13:03.737Z,32.40
2019-03-05T10:16:06.374Z,33.70
2019-03-05T10:19:16.977Z,33.30
2019-03-05T10:22:24.572Z,34.20
2019-03-05T10:25:29.644Z,33.70
2019-03-05T10:28:35.430Z,35.20
2019-03-05T10:31:40.570Z,36.90
2019-03-05T10:34:45.786Z,39.40
2019-03-05T10:37:53.558Z,41.40
2019-03-05T10:40:59.080Z,42.90
2019-03-05T10:44:04.710Z,44.60
2019-03-05T10:47:10.075Z,44.60
2019-03-05T10:50:17.897Z,43.80
2019-03-05T10:53:23.491Z,44.70
2019-03-05T10:56:28.932Z,45.50
2019-03-05T10:59:36.500Z,44.40
2019-03-05T11:02:41.541Z,44.50
2019-03-05T11:05:48.048Z,45.20
2019-03-05T11:08:53.178Z,43.70
2019-03-05T11:11:59.309Z,44.90
2019-03-05T11:15:05.090Z,44.70
2019-03-05T11:18:10.789Z,45.60
2019-03-05T11:21:18.814Z,46.30
2019-03-05T11:24:23.832Z,44.90
2019-03-05T11:27:28.918Z,45.50
2019-03-05T11:30:36.297Z,46.10
2019-03-05T11:33:41.827Z,46.70
2019-03-05T11:36:46.716Z,47.40
2019-03-05T11:39:55.550Z,47.50
2019-03-05T11:43:07.345Z,47.70
2019-03-05T11:46:21.726Z,48.10
2019-03-05T11:49:27.371Z,48.30
2019-03-05T11:52:36.946Z,48.00
2019-03-05T11:55:49.289Z,48.30
2019-03-05T11:58:56.747Z,49.00
2019-03-05T12:02:05.317Z,48.60
2019-03-05T12:05:13.649Z,48.30
2019-03-05T12:08:18.667Z,48.20
2019-03-05T12:11:23.644Z,48.30
2019-03-05T12:14:28.854Z,48.30
2019-03-05T12:17:43.267Z,48.00
2019-03-05T12:20:48.241Z,47.30
2019-03-05T12:23:53.259Z,47.10
2019-03-05T12:26:58.284Z,46.00
2019-03-05T12:30:05.752Z,45.60
2019-03-05T12:33:10.849Z,44.40
2019-03-05T12:36:16.078Z,45.30
2019-03-05T12:39:22.656Z,44.00
2019-03-05T12:42:27.936Z,44.70
2019-03-05T12:45:33.057Z,44.30
2019-03-05T12:48:40.288Z,44.20
2019-03-05T12:51:47.821Z,44.00
2019-03-05T12:54:52.887Z,40.90
2019-03-05T12:57:57.912Z,38.50
2019-03-05T13:01:03.367Z,36.20
2019-03-05T13:04:08.306Z,35.20
2019-03-05T13:07:14.166Z,34.30
2019-03-05T13:10:21.651Z,34.20
2019-03-05T13:13:26.714Z,35.00
2019-03-05T13:16:35.239Z,36.40
2019-03-05T13:19:38.878Z,38.20
2019-03-05T13:22:43.746Z,39.40
2019-03-05T13:25:48.679Z,40.50
2019-03-05T13:29:00.700Z,41.70
2019-03-05T13:32:24.412Z,41.60
2019-03-05T13:35:32.052Z,40.70
2019-03-05T13:38:36.169Z,38.70
2019-03-05T13:41:41.409Z,37.30
2019-03-05T13:44:46.624Z,37.10
2019-03-05T13:48:23.783Z,38.50
2019-03-05T13:52:12.956Z,38.20
2019-03-05T13:56:12.064Z,34.10
2019-03-05T13:59:38.072Z,29.60
2019-03-05T14:03:19.288Z,27.40
2019-03-05T14:06:58.478Z,25.80
2019-03-05T14:10:03.538Z,23.40
2019-03-05T14:13:09.102Z,21.40
2019-03-05T14:16:15.766Z,20.00
2019-03-05T14:19:20.802Z,19.10
2019-03-05T14:22:25.894Z,18.40
2019-03-05T14:25:30.973Z,17.90
2019-03-05T14:28:36.147Z,17.70
2019-03-05T14:31:41.165Z,17.60
2019-03-05T14:34:58.338Z,17.40
2019-03-05T14:38:03.955Z,17.40
2019-03-05T14:41:08.955Z,17.10
2019-03-05T14:44:14.630Z,16.90
2019-03-05T14:47:19.694Z,16.80
2019-03-05T14:50:24.753Z,16.70
2019-03-05T14:53:29.697Z,16.50
2019-03-05T14:56:34.804Z,16.50
2019-03-05T14:59:39.969Z,16.50
2019-03-05T15:02:45.258Z,16.30
2019-03-05T15:05:50.295Z,16.20
2019-03-05T15:08:55.264Z,16.00
2019-03-05T15:12:02.937Z,15.80
2019-03-05T15:15:11.983Z,15.80
2019-03-05T15:18:17.021Z,15.80
2019-03-05T15:21:22.097Z,15.80
2019-03-05T15:24:32.085Z,15.90
2019-03-05T15:27:37.501Z,15.90
2019-03-05T15:30:42.354Z,15.90
2019-03-05T15:33:47.542Z,16.10
2019-03-05T15:36:52.762Z,16.20
2019-03-05T15:39:57.802Z,16.40
2019-03-05T15:43:02.848Z,16.50
2019-03-05T15:46:08.146Z,16.50
2019-03-05T15:49:13.576Z,16.50
2019-03-05T15:52:18.842Z,16.40
2019-03-05T15:55:24.399Z,16.40
2019-03-05T15:58:29.421Z,16.30
2019-03-05T16:01:34.380Z,16.50
2019-03-05T16:04:43.516Z,16.60
2019-03-05T16:07:48.086Z,16.70
2019-03-05T16:10:54.649Z,16.70
2019-03-05T16:14:00.002Z,16.60
2019-03-05T16:17:05.379Z,16.60
2019-03-05T16:20:11.757Z,16.40
2019-03-05T16:23:16.600Z,16.30
2019-03-05T16:26:27.718Z,16.00
2019-03-05T16:29:32.723Z,15.70
2019-03-05T16:32:47.841Z,15.50
2019-03-05T16:36:13.009Z,15.30
2019-03-05T16:39:36.758Z,15.20
2019-03-05T16:42:55.614Z,15.10
2019-03-05T16:46:17.706Z,15.00
2019-03-05T16:49:43.912Z,15.00
2019-03-05T16:53:10.719Z,14.90
2019-03-05T16:56:52.996Z,14.80
2019-03-05T17:00:13.812Z,14.80
2019-03-05T17:03:36.947Z,14.60
2019-03-05T17:06:59.571Z,14.60
2019-03-05T17:10:30.176Z,14.50
2019-03-05T17:13:35.483Z,14.40
2019-03-05T17:16:40.636Z,14.40
2019-03-05T17:19:45.699Z,14.20
2019-03-05T17:22:50.883Z,14.20
2019-03-05T17:25:55.954Z,14.10
2019-03-05T17:29:01.077Z,14.00
2019-03-05T17:32:06.081Z,13.80
2019-03-05T17:35:11.878Z,13.70
2019-03-05T17:38:17.009Z,13.60
2019-03-05T17:41:22.129Z,13.60
2019-03-05T17:44:27.396Z,13.60
2019-03-05T17:47:32.618Z,13.50
2019-03-05T17:50:37.826Z,13.40
2019-03-05T17:53:43.218Z,13.30
2019-03-05T17:56:48.939Z,13.20
2019-03-05T17:59:54.148Z,13.10
2019-03-05T18:02:59.628Z,13.00
2019-03-05T18:06:04.773Z,12.90
2019-03-05T18:09:10.220Z,12.80
2019-03-05T18:12:21.011Z,12.60
2019-03-05T18:15:28.901Z,12.60
2019-03-05T18:18:34.484Z,12.50
2019-03-05T18:21:39.714Z,12.50
2019-03-05T18:24:44.849Z,12.50
2019-03-05T18:27:50.045Z,12.50
2019-03-05T18:30:54.894Z,12.30
2019-03-05T18:33:59.886Z,12.20
2019-03-05T18:37:04.958Z,12.10
2019-03-05T18:40:12.277Z,12.10
2019-03-05T18:43:17.202Z,12.10
2019-03-05T18:46:22.558Z,12.00
2019-03-05T18:49:27.697Z,11.90
2019-03-05T18:52:33.126Z,11.80
2019-03-05T18:55:38.561Z,11.70
2019-03-05T18:58:43.698Z,11.60
2019-03-05T19:01:48.744Z,11.50
2019-03-05T19:04:53.885Z,11.20
2019-03-05T19:08:00.631Z,11.10
2019-03-05T19:11:06.337Z,10.90
2019-03-05T19:14:11.370Z,10.90
2019-03-05T19:17:16.400Z,10.80
2019-03-05T19:20:22.952Z,10.70
2019-03-05T19:23:27.953Z,10.80
2019-03-05T19:26:33.161Z,10.90
2019-03-05T19:29:38.149Z,10.90
2019-03-05T19:32:43.167Z,10.80
2019-03-05T19:35:48.148Z,10.60
2019-03-05T19:38:53.448Z,10.60
2019-03-05T19:41:58.633Z,10.70
2019-03-05T19:45:03.816Z,10.80
2019-03-05T19:48:09.188Z,10.80
2019-03-05T19:51:14.356Z,10.70
2019-03-05T19:54:19.439Z,10.60
2019-03-05T19:57:24.655Z,10.60
2019-03-05T20:00:33.983Z,10.60
2019-03-05T20:03:39.060Z,10.60
2019-03-05T20:06:48.159Z,10.50
2019-03-05T20:09:53.436Z,10.50
2019-03-05T20:12:58.668Z,10.60
2019-03-05T20:16:05.055Z,10.60
2019-03-05T20:19:10.677Z,10.70
2019-03-05T20:22:15.713Z,10.60
2019-03-05T20:25:24.707Z,10.60
2019-03-05T20:28:30.072Z,10.60
2019-03-05T20:31:35.436Z,10.70
2019-03-05T20:34:59.426Z,10.60
2019-03-05T20:38:04.802Z,10.60
2019-03-05T20:41:09.884Z,10.70
2019-03-05T20:44:18.551Z,10.60
2019-03-05T20:47:23.752Z,10.50
2019-03-05T20:50:28.956Z,10.50
2019-03-05T20:53:38.716Z,10.50
2019-03-05T20:56:44.588Z,10.50
2019-03-05T20:59:49.839Z,10.50
2019-03-05T21:02:56.852Z,10.40
2019-03-05T21:06:09.023Z,10.40
2019-03-05T21:09:39.005Z,10.40
2019-03-05T21:12:44.636Z,10.30
2019-03-05T21:15:49.810Z,10.20
2019-03-05T21:18:59.439Z,10.10
2019-03-05T21:22:04.445Z,10.10
2019-03-05T21:25:10.413Z,9.90
2019-03-05T21:28:15.270Z,9.90
2019-03-05T21:31:39.099Z,9.80
2019-03-05T21:34:44.298Z,9.80
2019-03-05T21:37:49.259Z,9.70
2019-03-05T21:40:59.546Z,9.70
2019-03-05T21:44:01.158Z,9.60
2019-03-05T21:47:06.155Z,9.60
2019-03-05T21:50:12.223Z,9.50
2019-03-05T21:53:17.507Z,9.50
2019-03-05T21:56:22.437Z,9.40
2019-03-05T21:59:27.350Z,9.50
2019-03-05T22:02:32.496Z,9.40
2019-03-05T22:05:37.415Z,9.40
2019-03-05T22:08:42.322Z,9.30
2019-03-05T22:11:47.663Z,9.30
2019-03-05T22:14:52.681Z,9.30
2019-03-05T22:17:57.829Z,9.30
2019-03-05T22:21:03.709Z,9.30
2019-03-05T22:24:08.921Z,9.20
2019-03-05T22:27:19.694Z,9.10
2019-03-05T22:30:26.695Z,8.90
2019-03-05T22:33:31.702Z,8.90
2019-03-05T22:36:36.740Z,8.80
2019-03-05T22:39:41.777Z,8.70
2019-03-05T22:42:46.966Z,8.70
2019-03-05T22:45:52.062Z,8.70
2019-03-05T22:48:57.037Z,8.60
2019-03-05T22:52:04.516Z,8.60
2019-03-05T22:55:09.700Z,8.60
2019-03-05T22:58:14.741Z,8.60
2019-03-05T23:01:31.494Z,8.50
2019-03-05T23:04:39.547Z,8.50
2019-03-05T23:07:44.770Z,8.40
2019-03-05T23:10:49.787Z,8.40
2019-03-05T23:13:54.930Z,8.40
2019-03-05T23:17:00.005Z,8.30
2019-03-05T23:20:05.824Z,8.30
2019-03-05T23:23:10.732Z,8.30
2019-03-05T23:26:16.372Z,8.20
2019-03-05T23:29:28.218Z,8.20
2019-03-05T23:32:33.165Z,8.20
2019-03-05T23:35:38.742Z,8.00
2019-03-05T23:38:43.789Z,8.00
2019-03-05T23:41:48.982Z,8.00
2019-03-05T23:44:54.041Z,7.90
2019-03-05T23:48:05.199Z,7.80
2019-03-05T23:51:15.480Z,7.70
2019-03-05T23:54:20.443Z,7.70
2019-03-05T23:57:25.264Z,7.70
